createdAt,value
2022-11-17T00:00:24.296Z,9.10
2022-11-17T00:02:52.286Z,9.00
2022-11-17T00:05:20.318Z,9.00
2022-11-17T00:07:49.975Z,8.90
2022-11-17T00:10:18.819Z,8.90
2022-11-17T00:13:04.465Z,8.90
2022-11-17T00:15:33.954Z,8.80
2022-11-17T00:18:19.240Z,8.80
2022-11-17T00:21:04.609Z,8.80
2022-11-17T00:23:46.440Z,8.80
2022-11-17T00:26:15.805Z,8.80
2022-11-17T00:28:44.001Z,8.90
2022-11-17T00:31:32.080Z,8.90
2022-11-17T00:34:05.751Z,9.00
2022-11-17T00:36:35.814Z,9.00
2022-11-17T00:39:04.764Z,9.10
2022-11-17T00:41:32.793Z,9.10
2022-11-17T00:44:00.741Z,9.20
2022-11-17T00:46:30.088Z,9.10
2022-11-17T00:48:58.186Z,9.10
2022-11-17T00:51:26.240Z,9.10
2022-11-17T00:53:54.419Z,9.20
2022-11-17T00:56:22.557Z,9.20
2022-11-17T00:58:50.748Z,9.30
2022-11-17T01:01:19.118Z,9.20
2022-11-17T01:03:48.792Z,9.20
2022-11-17T01:06:19.041Z,9.20
2022-11-17T01:08:49.345Z,9.10
2022-11-17T01:11:19.101Z,9.10
2022-11-17T01:13:48.739Z,9.20
2022-11-17T01:16:18.901Z,9.10
2022-11-17T01:18:51.517Z,9.20
2022-11-17T01:21:22.396Z,9.20
2022-11-17T01:23:53.277Z,9.10
2022-11-17T01:26:23.389Z,9.10
2022-11-17T01:28:52.172Z,9.10
2022-11-17T01:31:22.288Z,9.20
2022-11-17T01:33:52.126Z,9.20
2022-11-17T01:36:22.479Z,9.20
2022-11-17T01:38:50.925Z,9.30
2022-11-17T01:41:21.052Z,9.30
2022-11-17T01:43:50.625Z,9.30
2022-11-17T01:46:30.561Z,9.40
2022-11-17T01:49:07.675Z,9.40
2022-11-17T01:51:41.096Z,9.40
2022-11-17T01:54:11.631Z,9.40
2022-11-17T01:56:45.094Z,9.40
2022-11-17T01:59:20.562Z,9.40
2022-11-17T02:01:56.505Z,9.30
2022-11-17T02:04:28.856Z,9.30
2022-11-17T02:07:02.381Z,9.30
2022-11-17T02:09:30.464Z,9.30
2022-11-17T02:11:59.829Z,9.30
2022-11-17T02:14:27.808Z,9.30
2022-11-17T02:16:55.742Z,9.30
2022-11-17T02:19:29.333Z,9.40
2022-11-17T02:22:23.830Z,9.30
2022-11-17T02:25:17.036Z,9.30
2022-11-17T02:28:07.677Z,9.30
2022-11-17T02:30:40.996Z,9.20
2022-11-17T02:33:17.665Z,9.30
2022-11-17T02:35:51.037Z,9.30
2022-11-17T02:38:28.025Z,9.30
2022-11-17T02:41:04.242Z,9.20
2022-11-17T02:43:55.456Z,9.30
2022-11-17T02:46:25.653Z,9.30
2022-11-17T02:48:58.488Z,9.30
2022-11-17T02:51:26.931Z,9.30
2022-11-17T02:53:57.319Z,9.40
2022-11-17T02:56:25.315Z,9.30
2022-11-17T02:58:58.588Z,9.30
2022-11-17T03:01:55.775Z,9.30
2022-11-17T03:04:43.957Z,9.30
2022-11-17T03:07:25.215Z,9.30
2022-11-17T03:10:02.308Z,9.30
2022-11-17T03:12:37.566Z,9.30
2022-11-17T03:15:14.664Z,9.30
2022-11-17T03:17:53.647Z,9.30
2022-11-17T03:20:25.752Z,9.40
2022-11-17T03:22:58.358Z,9.50
2022-11-17T03:25:28.354Z,9.40
2022-11-17T03:28:00.506Z,9.40
2022-11-17T03:30:34.712Z,9.30
2022-11-17T03:33:11.257Z,9.40
2022-11-17T03:35:46.308Z,9.30
2022-11-17T03:38:19.723Z,9.20
2022-11-17T03:40:51.873Z,9.20
2022-11-17T03:43:22.330Z,9.10
2022-11-17T03:45:54.881Z,9.00
2022-11-17T03:48:27.853Z,9.00
2022-11-17T03:51:00.257Z,8.80
2022-11-17T03:53:28.466Z,8.70
2022-11-17T03:56:03.807Z,8.70
2022-11-17T03:58:36.140Z,8.60
2022-11-17T04:01:06.962Z,8.50
2022-11-17T04:03:36.254Z,8.50
2022-11-17T04:06:04.557Z,8.60
2022-11-17T04:08:32.525Z,8.50
2022-11-17T04:11:17.813Z,8.40
2022-11-17T04:14:03.064Z,8.40
2022-11-17T04:16:32.561Z,8.40
2022-11-17T04:19:00.476Z,8.50
2022-11-17T04:21:29.651Z,8.50
2022-11-17T04:23:57.923Z,8.50
2022-11-17T04:26:44.230Z,8.40
2022-11-17T04:29:12.131Z,8.40
2022-11-17T04:31:41.495Z,8.60
2022-11-17T04:34:09.361Z,8.60
2022-11-17T04:36:40.694Z,8.50
2022-11-17T04:39:08.676Z,8.50
2022-11-17T04:41:54.097Z,8.50
2022-11-17T04:44:24.002Z,8.50
2022-11-17T04:46:54.285Z,8.60
2022-11-17T04:49:23.197Z,8.60
2022-11-17T04:51:51.838Z,8.70
2022-11-17T04:54:21.817Z,8.70
2022-11-17T04:56:49.705Z,8.80
2022-11-17T04:59:19.061Z,8.80
2022-11-17T05:01:47.538Z,8.90
2022-11-17T05:04:39.246Z,9.10
2022-11-17T05:07:07.930Z,9.00
2022-11-17T05:09:35.941Z,9.10
2022-11-17T05:12:21.416Z,9.10
2022-11-17T05:14:50.499Z,9.10
2022-11-17T05:17:18.052Z,9.10
2022-11-17T05:19:48.818Z,9.20
2022-11-17T05:22:36.889Z,9.20
2022-11-17T05:25:06.467Z,9.20
2022-11-17T05:27:35.302Z,9.30
2022-11-17T05:30:03.571Z,9.30
2022-11-17T05:32:31.517Z,9.30
2022-11-17T05:35:02.120Z,9.30
2022-11-17T05:37:30.080Z,9.30
2022-11-17T05:39:58.000Z,9.40
2022-11-17T05:42:25.937Z,9.50
2022-11-17T05:44:53.826Z,9.80
2022-11-17T05:47:21.747Z,9.90
2022-11-17T05:49:49.687Z,9.90
2022-11-17T05:52:19.054Z,9.90
2022-11-17T05:54:46.968Z,9.90
2022-11-17T05:57:17.892Z,9.90
2022-11-17T05:59:49.633Z,10.00
2022-11-17T06:02:22.122Z,9.90
2022-11-17T06:04:50.530Z,9.70
2022-11-17T06:07:21.279Z,9.70
2022-11-17T06:09:49.369Z,9.50
2022-11-17T06:12:17.301Z,9.30
2022-11-17T06:14:45.263Z,9.20
2022-11-17T06:17:22.767Z,9.20
2022-11-17T06:19:56.877Z,9.00
2022-11-17T06:22:27.849Z,8.90
2022-11-17T06:24:56.381Z,8.80
2022-11-17T06:27:25.519Z,8.90
2022-11-17T06:29:54.320Z,8.90
2022-11-17T06:32:22.626Z,8.90
2022-11-17T06:34:56.043Z,9.00
2022-11-17T06:37:26.216Z,9.10
2022-11-17T06:39:54.179Z,9.10
2022-11-17T06:42:42.855Z,9.20
2022-11-17T06:45:11.887Z,9.20
2022-11-17T06:47:39.992Z,9.30
2022-11-17T06:50:09.475Z,9.30
2022-11-17T06:52:38.933Z,9.30
2022-11-17T06:55:08.130Z,9.30
2022-11-17T06:57:36.075Z,9.30
2022-11-17T07:00:06.088Z,9.20
2022-11-17T07:02:34.414Z,9.20
2022-11-17T07:05:02.460Z,9.20
2022-11-17T07:07:30.540Z,9.10
2022-11-17T07:10:00.047Z,9.10
2022-11-17T07:12:28.104Z,9.10
2022-11-17T07:14:56.152Z,9.20
2022-11-17T07:17:24.231Z,9.20
2022-11-17T07:19:53.594Z,9.30
2022-11-17T07:22:21.943Z,9.40
2022-11-17T07:24:49.927Z,9.60
2022-11-17T07:27:19.271Z,9.70
2022-11-17T07:29:47.339Z,9.90
2022-11-17T07:32:15.422Z,9.90
2022-11-17T07:34:44.600Z,9.90
2022-11-17T07:37:12.675Z,9.90
2022-11-17T07:39:40.693Z,9.90
2022-11-17T07:42:09.056Z,10.10
2022-11-17T07:44:38.426Z,10.30
2022-11-17T07:47:06.472Z,10.30
2022-11-17T07:49:34.555Z,10.50
2022-11-17T07:52:02.554Z,10.50
2022-11-17T07:54:30.541Z,10.50
2022-11-17T07:56:58.715Z,10.60
2022-11-17T07:59:26.705Z,10.40
2022-11-17T08:01:56.153Z,10.40
2022-11-17T08:04:24.170Z,10.40
2022-11-17T08:06:52.281Z,10.40
2022-11-17T08:09:20.348Z,10.40
2022-11-17T08:11:48.431Z,10.40
2022-11-17T08:14:16.586Z,10.50
2022-11-17T08:16:44.607Z,10.40
2022-11-17T08:19:14.586Z,10.50
2022-11-17T08:21:42.636Z,10.40
2022-11-17T08:24:12.896Z,10.40
2022-11-17T08:26:41.209Z,10.40
2022-11-17T08:29:09.342Z,10.30
2022-11-17T08:31:37.396Z,10.30
2022-11-17T08:34:05.491Z,10.40
2022-11-17T08:36:34.848Z,10.50
2022-11-17T08:39:03.020Z,10.50
2022-11-17T08:41:31.850Z,10.60
2022-11-17T08:43:59.931Z,10.60
2022-11-17T08:46:27.936Z,10.50
2022-11-17T08:48:57.224Z,10.60
2022-11-17T08:51:27.269Z,10.50
2022-11-17T08:53:56.905Z,10.50
2022-11-17T08:56:25.024Z,10.50
2022-11-17T08:58:53.098Z,10.60
2022-11-17T09:01:21.299Z,10.60
2022-11-17T09:03:49.854Z,10.70
2022-11-17T09:06:20.092Z,10.60
2022-11-17T09:08:48.830Z,10.60
2022-11-17T09:11:18.399Z,10.60
2022-11-17T09:13:47.064Z,10.60
2022-11-17T09:16:16.665Z,10.60
2022-11-17T09:18:45.522Z,10.70
2022-11-17T09:21:15.224Z,10.80
2022-11-17T09:23:44.048Z,10.90
2022-11-17T09:26:14.519Z,10.90
2022-11-17T09:28:44.352Z,10.90
2022-11-17T09:31:14.404Z,10.90
2022-11-17T09:33:42.824Z,10.90
2022-11-17T09:36:11.945Z,10.90
2022-11-17T09:38:41.106Z,10.90
2022-11-17T09:41:23.218Z,10.90
2022-11-17T09:44:00.367Z,10.80
2022-11-17T09:46:34.718Z,10.80
2022-11-17T09:49:09.019Z,10.70
2022-11-17T09:51:39.818Z,10.70
2022-11-17T09:54:15.445Z,10.60
2022-11-17T09:56:44.616Z,10.70
2022-11-17T09:59:19.322Z,10.60
2022-11-17T10:01:47.399Z,10.60
2022-11-17T10:04:18.648Z,10.70
2022-11-17T10:06:50.229Z,10.70
2022-11-17T10:09:25.956Z,10.70
2022-11-17T10:12:02.922Z,10.80
2022-11-17T10:14:41.920Z,10.90
2022-11-17T10:17:10.891Z,11.00
2022-11-17T10:19:39.750Z,10.90
2022-11-17T10:22:30.038Z,10.80
2022-11-17T10:24:58.786Z,10.80
2022-11-17T10:27:28.880Z,10.80
2022-11-17T10:30:04.621Z,10.80
2022-11-17T10:32:35.341Z,10.80
2022-11-17T10:35:16.036Z,10.80
2022-11-17T10:37:52.708Z,10.90
2022-11-17T10:40:25.770Z,11.00
2022-11-17T10:43:18.990Z,11.10
2022-11-17T10:45:50.100Z,11.20
2022-11-17T10:48:25.444Z,11.20
2022-11-17T10:50:55.793Z,11.20
2022-11-17T10:53:31.359Z,11.40
2022-11-17T10:56:05.977Z,11.40
2022-11-17T10:58:56.094Z,11.30
2022-11-17T11:01:32.318Z,11.10
2022-11-17T11:04:00.702Z,11.10
2022-11-17T11:06:29.817Z,11.10
2022-11-17T11:09:01.573Z,11.10
2022-11-17T11:11:37.890Z,11.10
2022-11-17T11:14:14.382Z,10.90
2022-11-17T11:16:48.378Z,10.90
2022-11-17T11:19:18.680Z,10.90
2022-11-17T11:22:01.260Z,11.00
2022-11-17T11:24:37.720Z,11.00
2022-11-17T11:27:21.944Z,10.90
2022-11-17T11:29:59.561Z,10.90
2022-11-17T11:32:39.742Z,11.00
2022-11-17T11:35:52.751Z,10.90
2022-11-17T11:38:39.058Z,10.90
2022-11-17T11:41:20.372Z,11.00
2022-11-17T11:44:00.303Z,10.90
2022-11-17T11:46:40.588Z,10.90
2022-11-17T11:49:19.411Z,11.00
2022-11-17T11:51:50.324Z,11.20
2022-11-17T11:54:28.295Z,11.40
2022-11-17T11:56:56.652Z,11.50
2022-11-17T11:59:37.647Z,11.70
2022-11-17T12:02:21.655Z,11.90
2022-11-17T12:05:00.882Z,12.10
2022-11-17T12:07:37.569Z,12.20
2022-11-17T12:10:07.877Z,12.40
2022-11-17T12:12:39.647Z,12.60
2022-11-17T12:15:13.877Z,12.70
2022-11-17T12:17:59.339Z,12.60
2022-11-17T12:20:56.950Z,12.70
2022-11-17T12:23:35.511Z,12.80
2022-11-17T12:26:03.920Z,12.80
2022-11-17T12:28:35.706Z,12.70
2022-11-17T12:31:09.820Z,12.70
2022-11-17T12:34:11.517Z,12.60
2022-11-17T12:36:41.099Z,12.60
2022-11-17T12:39:47.572Z,12.60
2022-11-17T12:42:15.585Z,12.90
2022-11-17T12:44:58.678Z,13.10
2022-11-17T12:47:28.650Z,13.00
2022-11-17T12:50:27.328Z,12.80
2022-11-17T12:53:22.321Z,12.80
2022-11-17T12:56:26.981Z,12.60
2022-11-17T12:59:06.190Z,12.60
2022-11-17T13:01:43.141Z,12.60
2022-11-17T13:04:16.375Z,12.60
2022-11-17T13:07:01.149Z,12.50
2022-11-17T13:09:33.417Z,12.40
2022-11-17T13:12:04.181Z,12.30
2022-11-17T13:14:32.801Z,12.20
2022-11-17T13:17:01.576Z,12.20
2022-11-17T13:19:34.357Z,12.30
2022-11-17T13:22:05.556Z,12.30
2022-11-17T13:24:36.892Z,12.50
2022-11-17T13:27:08.411Z,12.60
2022-11-17T13:29:36.751Z,12.70
2022-11-17T13:32:28.475Z,12.80
2022-11-17T13:34:59.902Z,12.90
2022-11-17T13:37:30.516Z,13.00
2022-11-17T13:40:01.976Z,13.10
2022-11-17T13:42:33.440Z,13.10
2022-11-17T13:45:03.765Z,13.00
2022-11-17T13:47:46.632Z,12.90
2022-11-17T13:50:34.175Z,12.90
2022-11-17T13:53:06.355Z,12.90
2022-11-17T13:55:36.471Z,12.90
2022-11-17T13:58:08.876Z,12.80
2022-11-17T14:00:37.281Z,12.70
2022-11-17T14:03:07.212Z,12.50
2022-11-17T14:05:35.546Z,12.40
2022-11-17T14:08:14.441Z,12.30
2022-11-17T14:10:45.756Z,12.10
2022-11-17T14:13:27.552Z,12.00
2022-11-17T14:15:58.375Z,12.00
2022-11-17T14:18:31.781Z,12.00
2022-11-17T14:21:14.924Z,12.00
2022-11-17T14:23:43.837Z,12.00
2022-11-17T14:26:21.630Z,12.00
2022-11-17T14:28:50.740Z,12.10
2022-11-17T14:31:19.106Z,12.10
2022-11-17T14:33:47.391Z,12.10
2022-11-17T14:36:17.012Z,12.10
2022-11-17T14:38:45.864Z,12.10
2022-11-17T14:41:16.099Z,12.10
2022-11-17T14:43:45.790Z,12.00
2022-11-17T14:46:19.898Z,12.00
2022-11-17T14:48:48.219Z,11.90
2022-11-17T14:51:16.294Z,11.90
2022-11-17T14:53:44.811Z,11.90
2022-11-17T14:56:15.259Z,12.00
2022-11-17T14:58:43.182Z,12.00
2022-11-17T15:01:17.086Z,12.00
2022-11-17T15:03:45.485Z,12.00
2022-11-17T15:06:19.308Z,11.90
2022-11-17T15:08:48.034Z,11.80
2022-11-17T15:11:17.661Z,11.80
2022-11-17T15:13:46.014Z,11.70
2022-11-17T15:16:15.325Z,11.60
2022-11-17T15:18:46.103Z,11.50
2022-11-17T15:21:14.844Z,11.50
2022-11-17T15:23:44.406Z,11.40
2022-11-17T15:26:14.689Z,11.50
2022-11-17T15:28:43.278Z,11.40
2022-11-17T15:31:13.633Z,11.30
2022-11-17T15:33:44.115Z,11.30
2022-11-17T15:36:14.286Z,11.20
2022-11-17T15:38:42.774Z,11.10
2022-11-17T15:41:13.385Z,10.90
2022-11-17T15:43:43.059Z,10.70
2022-11-17T15:46:12.443Z,10.50
2022-11-17T15:48:43.400Z,10.40
2022-11-17T15:51:13.028Z,10.20
2022-11-17T15:53:42.247Z,10.10
2022-11-17T15:56:11.713Z,10.00
2022-11-17T15:58:40.720Z,10.10
2022-11-17T16:01:10.904Z,10.20
2022-11-17T16:03:39.438Z,10.30
2022-11-17T16:06:09.480Z,10.20
2022-11-17T16:08:38.086Z,10.10
2022-11-17T16:11:06.898Z,10.10
2022-11-17T16:13:35.323Z,10.00
2022-11-17T16:16:03.449Z,10.00
2022-11-17T16:18:33.244Z,9.90
2022-11-17T16:21:04.874Z,9.90
2022-11-17T16:23:38.717Z,9.80
2022-11-17T16:26:07.031Z,9.70
2022-11-17T16:28:35.080Z,9.80
2022-11-17T16:31:13.572Z,9.80
2022-11-17T16:33:41.836Z,9.80
2022-11-17T16:36:10.507Z,9.70
2022-11-17T16:38:55.121Z,9.70
2022-11-17T16:41:29.523Z,9.70
2022-11-17T16:43:57.945Z,9.80
2022-11-17T16:46:28.775Z,9.90
2022-11-17T16:48:57.588Z,9.80
2022-11-17T16:51:25.814Z,9.90
2022-11-17T16:53:58.651Z,10.10
2022-11-17T16:56:26.866Z,10.10
2022-11-17T16:58:55.217Z,10.10
2022-11-17T17:01:25.528Z,10.10
2022-11-17T17:03:57.220Z,10.20
2022-11-17T17:06:25.766Z,10.20
2022-11-17T17:08:59.556Z,10.10
2022-11-17T17:11:29.308Z,10.00
2022-11-17T17:13:57.511Z,9.90
2022-11-17T17:16:26.136Z,9.80
2022-11-17T17:18:59.424Z,9.70
2022-11-17T17:21:28.844Z,9.70
2022-11-17T17:23:58.829Z,9.70
2022-11-17T17:26:28.765Z,9.80
2022-11-17T17:28:58.689Z,9.80
2022-11-17T17:31:30.117Z,9.90
2022-11-17T17:33:59.849Z,9.90
2022-11-17T17:36:29.133Z,10.00
2022-11-17T17:39:02.705Z,10.10
2022-11-17T17:41:34.277Z,10.20
2022-11-17T17:44:04.301Z,10.20
2022-11-17T17:46:35.046Z,10.30
2022-11-17T17:49:03.179Z,10.20
2022-11-17T17:51:31.739Z,10.20
2022-11-17T17:54:02.168Z,10.30
2022-11-17T17:56:31.331Z,10.30
2022-11-17T17:58:59.806Z,10.30
2022-11-17T18:01:29.368Z,10.40
2022-11-17T18:04:01.535Z,10.40
2022-11-17T18:06:29.748Z,10.50
2022-11-17T18:08:59.816Z,10.50
2022-11-17T18:11:27.820Z,10.60
2022-11-17T18:13:56.011Z,10.70
2022-11-17T18:16:25.700Z,10.70
2022-11-17T18:18:58.565Z,10.70
2022-11-17T18:21:28.601Z,10.70
2022-11-17T18:23:58.397Z,10.70
2022-11-17T18:26:29.448Z,10.80
2022-11-17T18:28:59.590Z,10.80
2022-11-17T18:31:29.527Z,10.80
2022-11-17T18:33:59.516Z,10.80
2022-11-17T18:36:28.885Z,10.70
2022-11-17T18:38:58.519Z,10.80
2022-11-17T18:41:30.732Z,10.90
2022-11-17T18:43:59.091Z,10.90
2022-11-17T18:46:31.275Z,11.00
2022-11-17T18:48:59.717Z,11.10
2022-11-17T18:51:29.228Z,11.10
2022-11-17T18:53:59.066Z,11.10
2022-11-17T18:56:32.118Z,11.20
2022-11-17T18:59:00.359Z,11.20
2022-11-17T19:01:29.605Z,11.20
2022-11-17T19:04:00.184Z,11.30
2022-11-17T19:06:28.412Z,11.30
2022-11-17T19:08:58.648Z,11.20
2022-11-17T19:11:30.784Z,11.10
2022-11-17T19:14:02.157Z,11.00
2022-11-17T19:16:31.817Z,10.80
2022-11-17T19:19:00.532Z,10.50
2022-11-17T19:21:29.628Z,10.20
2022-11-17T19:24:00.344Z,9.90
2022-11-17T19:26:31.425Z,9.80
2022-11-17T19:29:00.955Z,9.60
2022-11-17T19:31:30.071Z,9.40
2022-11-17T19:33:58.832Z,9.30
2022-11-17T19:36:29.317Z,9.20
2022-11-17T19:39:00.752Z,9.10
2022-11-17T19:41:31.804Z,9.00
2022-11-17T19:44:01.819Z,8.80
2022-11-17T19:46:30.653Z,8.60
2022-11-17T19:48:59.181Z,8.40
2022-11-17T19:51:29.246Z,8.30
2022-11-17T19:54:01.815Z,8.20
2022-11-17T19:56:31.863Z,8.00
2022-11-17T19:58:59.984Z,8.00
2022-11-17T20:01:29.485Z,7.90
2022-11-17T20:03:59.026Z,7.80
2022-11-17T20:06:28.763Z,7.80
2022-11-17T20:08:57.374Z,7.80
2022-11-17T20:11:27.404Z,7.70
2022-11-17T20:13:57.229Z,7.70
2022-11-17T20:16:27.591Z,7.60
2022-11-17T20:18:57.710Z,7.60
2022-11-17T20:21:26.502Z,7.70
2022-11-17T20:23:55.201Z,7.70
2022-11-17T20:26:25.547Z,7.70
2022-11-17T20:28:54.110Z,7.70
2022-11-17T20:31:25.243Z,7.80
2022-11-17T20:33:56.320Z,7.80
2022-11-17T20:36:24.811Z,7.70
2022-11-17T20:38:53.526Z,7.80
2022-11-17T20:41:23.237Z,7.70
2022-11-17T20:43:52.276Z,7.70
2022-11-17T20:46:20.676Z,7.70
2022-11-17T20:48:50.597Z,7.70
2022-11-17T20:51:20.086Z,7.70
2022-11-17T20:53:48.532Z,7.70
2022-11-17T20:56:17.726Z,7.70
2022-11-17T20:58:46.245Z,7.70
2022-11-17T21:01:16.510Z,7.70
2022-11-17T21:03:45.358Z,7.60
2022-11-17T21:06:15.301Z,7.60
2022-11-17T21:08:44.903Z,7.60
2022-11-17T21:11:34.903Z,7.50
2022-11-17T21:14:03.407Z,7.60
2022-11-17T21:16:31.683Z,7.60
2022-11-17T21:19:00.100Z,7.60
2022-11-17T21:21:29.656Z,7.60
2022-11-17T21:23:57.765Z,7.60
2022-11-17T21:26:25.964Z,7.60
2022-11-17T21:28:54.371Z,7.60
2022-11-17T21:31:24.828Z,7.60
2022-11-17T21:33:54.813Z,7.60
2022-11-17T21:36:24.118Z,7.60
2022-11-17T21:38:54.185Z,7.60
2022-11-17T21:41:23.990Z,7.60
2022-11-17T21:43:53.457Z,7.50
2022-11-17T21:46:23.029Z,7.40
2022-11-17T21:48:52.115Z,7.50
2022-11-17T21:51:22.424Z,7.40
2022-11-17T21:53:55.480Z,7.40
2022-11-17T21:56:26.604Z,7.50
2022-11-17T21:58:55.794Z,7.50
2022-11-17T22:01:24.058Z,7.40
2022-11-17T22:03:52.507Z,7.50
2022-11-17T22:06:22.925Z,7.50
2022-11-17T22:08:51.396Z,7.50
2022-11-17T22:11:35.259Z,7.40
2022-11-17T22:14:09.386Z,7.40
2022-11-17T22:16:38.887Z,7.40
2022-11-17T22:19:07.959Z,7.40
2022-11-17T22:21:36.610Z,7.40
2022-11-17T22:24:05.001Z,7.40
2022-11-17T22:26:35.973Z,7.40
2022-11-17T22:29:04.024Z,7.40
2022-11-17T22:31:32.243Z,7.30
2022-11-17T22:34:00.887Z,7.30
2022-11-17T22:36:29.041Z,7.30
2022-11-17T22:38:57.145Z,7.30
2022-11-17T22:41:26.292Z,7.30
2022-11-17T22:43:57.683Z,7.20
2022-11-17T22:46:27.346Z,7.20
2022-11-17T22:48:55.894Z,7.20
2022-11-17T22:51:41.593Z,7.20
2022-11-17T22:54:09.855Z,7.20
2022-11-17T22:56:38.009Z,7.20
2022-11-17T22:59:07.521Z,7.20
2022-11-17T23:01:35.562Z,7.20
2022-11-17T23:04:03.684Z,7.10
2022-11-17T23:06:31.660Z,7.10
2022-11-17T23:08:59.724Z,7.10
2022-11-17T23:11:37.627Z,7.00
2022-11-17T23:14:09.920Z,7.00
2022-11-17T23:16:38.541Z,7.00
2022-11-17T23:19:09.436Z,7.00
2022-11-17T23:21:37.478Z,7.00
2022-11-17T23:24:05.993Z,7.00
2022-11-17T23:26:34.022Z,6.90
2022-11-17T23:29:02.051Z,6.90
2022-11-17T23:31:31.449Z,6.90
2022-11-17T23:33:59.491Z,6.90
2022-11-17T23:36:27.612Z,6.90
2022-11-17T23:38:57.542Z,7.00
2022-11-17T23:41:25.633Z,7.00
2022-11-17T23:43:54.772Z,7.00
2022-11-17T23:46:24.861Z,7.10
2022-11-17T23:48:56.174Z,7.00
2022-11-17T23:51:26.013Z,7.10
2022-11-17T23:53:54.854Z,7.10
2022-11-17T23:56:23.418Z,7.20
2022-11-17T23:58:52.184Z,7.20
